createdAt,value
2018-12-22T00:04:57.635Z,10.30
2018-12-22T00:07:26.648Z,10.50
2018-12-22T00:14:53.090Z,10.50
2018-12-22T00:17:22.055Z,10.50
2018-12-22T00:19:51.033Z,10.60
2018-12-22T00:22:20.099Z,10.70
2018-12-22T00:24:49.294Z,10.60
2018-12-22T00:29:55.963Z,10.50
2018-12-22T00:34:54.496Z,10.40
2018-12-22T00:37:23.551Z,10.40
2018-12-22T00:39:52.510Z,10.20
2018-12-22T00:42:21.575Z,10.10
2018-12-22T00:44:50.540Z,10.10
2018-12-22T00:47:19.508Z,10.00
2018-12-22T00:49:48.610Z,10.00
2018-12-22T00:52:20.539Z,9.80
2018-12-22T00:54:49.485Z,9.80
2018-12-22T00:57:18.730Z,9.80
2018-12-22T00:59:47.773Z,9.50
2018-12-22T01:02:16.745Z,9.50
2018-12-22T01:04:45.692Z,9.70
2018-12-22T01:07:14.669Z,9.40
2018-12-22T01:09:43.604Z,9.60
2018-12-22T01:12:12.958Z,9.90
2018-12-22T01:14:42.299Z,9.70
2018-12-22T01:17:11.250Z,9.60
2018-12-22T01:19:40.200Z,9.60
2018-12-22T01:22:09.485Z,9.70
2018-12-22T01:24:38.443Z,9.70
2018-12-22T01:27:07.412Z,9.60
2018-12-22T01:29:36.386Z,9.60
2018-12-22T01:32:05.372Z,9.50
2018-12-22T01:34:34.324Z,9.60
2018-12-22T01:37:03.332Z,9.50
2018-12-22T01:39:32.292Z,9.50
2018-12-22T01:42:01.290Z,9.50
2018-12-22T01:44:30.357Z,9.50
2018-12-22T01:46:59.342Z,9.60
2018-12-22T01:49:28.269Z,9.70
2018-12-22T01:51:57.571Z,9.70
2018-12-22T01:54:26.521Z,9.80
2018-12-22T01:56:55.500Z,10.00
2018-12-22T01:59:24.805Z,9.70
2018-12-22T02:01:54.115Z,9.70
2018-12-22T02:04:23.090Z,9.70
2018-12-22T02:06:52.392Z,9.80
2018-12-22T02:09:21.368Z,9.80
2018-12-22T02:11:50.360Z,9.90
2018-12-22T02:14:19.326Z,9.90
2018-12-22T02:16:48.397Z,9.80
2018-12-22T02:19:17.336Z,9.70
2018-12-22T02:21:47.156Z,9.60
2018-12-22T02:24:16.378Z,9.60
2018-12-22T02:26:46.235Z,9.60
2018-12-22T02:29:15.441Z,9.60
2018-12-22T02:31:44.426Z,9.70
2018-12-22T02:34:13.411Z,9.70
2018-12-22T02:36:42.370Z,9.60
2018-12-22T02:39:11.423Z,9.60
2018-12-22T02:41:40.431Z,9.60
2018-12-22T02:44:09.423Z,9.10
2018-12-22T02:46:38.415Z,9.80
2018-12-22T02:49:07.397Z,9.90
2018-12-22T02:51:36.516Z,10.00
2018-12-22T02:54:05.550Z,10.60
2018-12-22T02:56:34.575Z,10.00
2018-12-22T02:59:06.270Z,10.10
2018-12-22T03:01:34.677Z,10.00
2018-12-22T03:04:03.685Z,10.00
2018-12-22T03:06:32.680Z,10.10
2018-12-22T03:09:01.981Z,10.10
2018-12-22T03:11:31.021Z,10.10
2018-12-22T03:13:59.987Z,10.10
2018-12-22T03:16:28.989Z,10.10
2018-12-22T03:18:58.257Z,10.00
2018-12-22T03:21:27.454Z,10.00
2018-12-22T03:23:56.458Z,9.90
2018-12-22T03:26:25.454Z,9.90
2018-12-22T03:28:54.439Z,9.90
2018-12-22T03:31:23.465Z,9.90
2018-12-22T03:33:52.456Z,9.80
2018-12-22T03:36:21.454Z,9.90
2018-12-22T03:38:50.484Z,9.90
2018-12-22T03:41:19.466Z,9.90
2018-12-22T03:43:49.177Z,10.00
2018-12-22T03:46:18.575Z,10.10
2018-12-22T03:48:47.638Z,10.10
2018-12-22T03:51:16.606Z,10.20
2018-12-22T03:53:45.847Z,10.20
2018-12-22T03:56:14.816Z,10.30
2018-12-22T03:58:44.148Z,10.30
2018-12-22T04:01:13.120Z,10.20
2018-12-22T04:03:42.439Z,10.20
2018-12-22T04:06:11.525Z,10.40
2018-12-22T04:08:40.508Z,10.40
2018-12-22T04:11:09.489Z,10.30
2018-12-22T04:13:38.490Z,10.50
2018-12-22T04:16:07.473Z,10.40
2018-12-22T04:18:36.442Z,10.50
2018-12-22T04:21:05.494Z,10.50
2018-12-22T04:23:34.745Z,10.50
2018-12-22T04:26:03.733Z,10.50
2018-12-22T04:28:32.713Z,10.60
2018-12-22T04:31:01.696Z,10.70
2018-12-22T04:33:30.668Z,10.70
2018-12-22T04:35:59.633Z,10.70
2018-12-22T04:38:28.598Z,10.70
2018-12-22T04:40:57.569Z,10.80
2018-12-22T04:43:26.574Z,10.80
2018-12-22T04:45:55.544Z,11.00
2018-12-22T04:48:24.522Z,11.00
2018-12-22T04:50:54.328Z,11.00
2018-12-22T04:53:23.312Z,11.00
2018-12-22T04:55:52.258Z,11.10
2018-12-22T04:58:21.283Z,11.10
2018-12-22T05:00:50.262Z,11.10
2018-12-22T05:03:19.237Z,11.10
2018-12-22T05:05:48.249Z,11.20
2018-12-22T05:08:17.244Z,11.10
2018-12-22T05:10:46.453Z,11.10
2018-12-22T05:13:15.454Z,11.10
2018-12-22T05:15:44.452Z,11.10
2018-12-22T05:18:13.453Z,11.20
2018-12-22T05:20:42.469Z,11.10
2018-12-22T05:23:11.789Z,11.20
2018-12-22T05:25:41.081Z,11.20
2018-12-22T05:28:10.118Z,11.20
2018-12-22T05:30:39.199Z,11.30
2018-12-22T05:33:08.242Z,11.30
2018-12-22T05:35:37.236Z,11.20
2018-12-22T05:38:06.229Z,11.30
2018-12-22T05:40:35.645Z,11.30
2018-12-22T05:43:05.129Z,11.20
2018-12-22T05:45:34.098Z,11.20
2018-12-22T05:48:04.104Z,11.30
2018-12-22T05:50:33.132Z,11.20
2018-12-22T05:53:02.144Z,11.20
2018-12-22T05:55:31.121Z,11.30
2018-12-22T05:58:00.127Z,11.20
2018-12-22T06:00:29.168Z,11.10
2018-12-22T06:02:58.533Z,11.10
2018-12-22T06:05:27.624Z,11.00
2018-12-22T06:07:56.601Z,11.00
2018-12-22T06:10:25.619Z,11.00
2018-12-22T06:12:54.723Z,11.00
2018-12-22T06:15:23.854Z,11.10
2018-12-22T06:17:52.820Z,11.00
2018-12-22T06:20:21.804Z,11.00
2018-12-22T06:22:50.853Z,11.00
2018-12-22T06:25:19.934Z,11.00
2018-12-22T06:27:48.940Z,11.00
2018-12-22T06:30:17.941Z,11.00
2018-12-22T06:32:46.909Z,11.00
2018-12-22T06:35:15.898Z,11.00
2018-12-22T06:37:44.856Z,11.10
2018-12-22T06:40:13.849Z,11.10
2018-12-22T06:42:42.807Z,11.20
2018-12-22T06:45:11.886Z,11.20
2018-12-22T06:47:40.872Z,11.30
2018-12-22T06:50:10.036Z,11.30
2018-12-22T06:52:39.074Z,11.30
2018-12-22T06:55:08.045Z,11.20
2018-12-22T06:57:37.029Z,11.20
2018-12-22T07:00:07.837Z,11.30
2018-12-22T07:02:36.822Z,11.30
2018-12-22T07:05:06.160Z,11.30
2018-12-22T07:07:35.109Z,11.30
2018-12-22T07:10:05.304Z,11.30
2018-12-22T07:12:34.268Z,11.30
2018-12-22T07:15:03.401Z,11.30
2018-12-22T07:17:32.352Z,11.20
2018-12-22T07:20:01.625Z,11.30
2018-12-22T07:22:30.609Z,11.30
2018-12-22T07:24:59.785Z,11.30
2018-12-22T07:27:29.053Z,11.30
2018-12-22T07:29:58.048Z,11.40
2018-12-22T07:32:27.068Z,11.40
2018-12-22T07:34:56.052Z,11.30
2018-12-22T07:37:25.304Z,11.30
2018-12-22T07:39:54.604Z,11.30
2018-12-22T07:42:23.588Z,11.30
2018-12-22T07:44:52.891Z,11.30
2018-12-22T07:47:21.870Z,11.40
2018-12-22T07:49:50.931Z,11.40
2018-12-22T07:52:19.975Z,11.40
2018-12-22T07:54:49.334Z,11.40
2018-12-22T07:57:18.380Z,11.40
2018-12-22T07:59:47.767Z,11.40
2018-12-22T08:02:17.155Z,11.40
2018-12-22T08:04:46.428Z,11.30
2018-12-22T08:07:15.427Z,11.20
2018-12-22T08:09:44.694Z,11.30
2018-12-22T08:12:13.688Z,11.40
2018-12-22T08:14:42.772Z,11.40
2018-12-22T08:17:11.742Z,11.50
2018-12-22T08:19:40.865Z,11.30
2018-12-22T08:22:09.864Z,11.40
2018-12-22T08:24:38.845Z,11.40
2018-12-22T08:27:07.840Z,11.40
2018-12-22T08:29:37.420Z,11.40
2018-12-22T08:32:06.564Z,11.40
2018-12-22T08:34:35.548Z,11.30
2018-12-22T08:37:04.655Z,11.30
2018-12-22T08:39:33.662Z,11.20
2018-12-22T08:42:02.680Z,11.10
2018-12-22T08:44:31.671Z,11.10
2018-12-22T08:47:00.662Z,11.10
2018-12-22T08:49:29.646Z,11.00
2018-12-22T08:51:58.614Z,11.00
2018-12-22T08:54:27.594Z,11.00
2018-12-22T08:56:56.580Z,10.90
2018-12-22T08:59:25.770Z,10.90
2018-12-22T09:01:54.837Z,10.90
2018-12-22T09:04:23.816Z,10.90
2018-12-22T09:06:52.785Z,11.00
2018-12-22T09:09:21.783Z,11.00
2018-12-22T09:11:50.764Z,11.00
2018-12-22T09:14:19.829Z,11.00
2018-12-22T09:16:48.790Z,11.00
2018-12-22T09:19:17.776Z,10.90
2018-12-22T09:21:46.750Z,11.00
2018-12-22T09:24:15.756Z,11.00
2018-12-22T09:26:44.787Z,11.00
2018-12-22T09:29:13.807Z,11.00
2018-12-22T09:31:42.792Z,11.00
2018-12-22T09:34:13.547Z,11.00
2018-12-22T09:36:42.816Z,11.10
2018-12-22T09:39:11.803Z,11.20
2018-12-22T09:41:41.137Z,11.10
2018-12-22T09:44:10.147Z,11.10
2018-12-22T09:46:39.479Z,11.10
2018-12-22T09:49:08.467Z,11.10
2018-12-22T09:51:37.448Z,11.20
2018-12-22T09:54:06.556Z,11.20
2018-12-22T09:56:35.597Z,11.20
2018-12-22T09:59:06.445Z,11.20
2018-12-22T10:01:35.773Z,11.40
2018-12-22T10:04:04.728Z,11.40
2018-12-22T10:06:33.713Z,11.40
2018-12-22T10:09:03.141Z,11.40
2018-12-22T10:11:32.136Z,11.50
2018-12-22T10:14:01.219Z,11.40
2018-12-22T10:16:30.296Z,11.40
2018-12-22T10:18:59.316Z,11.40
2018-12-22T10:21:28.327Z,11.50
2018-12-22T10:23:57.404Z,11.50
2018-12-22T10:26:27.067Z,11.40
2018-12-22T10:28:56.692Z,11.30
2018-12-22T10:31:25.704Z,11.20
2018-12-22T10:33:54.987Z,11.20
2018-12-22T10:36:24.100Z,11.20
2018-12-22T10:38:53.075Z,11.10
2018-12-22T10:41:22.072Z,11.10
2018-12-22T10:43:51.181Z,11.00
2018-12-22T10:46:21.597Z,10.80
2018-12-22T10:48:51.374Z,10.90
2018-12-22T10:51:24.189Z,10.90
2018-12-22T10:53:51.508Z,10.80
2018-12-22T10:56:20.684Z,10.80
2018-12-22T10:58:49.642Z,10.80
2018-12-22T11:01:26.173Z,10.80
2018-12-22T11:03:49.706Z,10.70
2018-12-22T11:06:18.657Z,10.70
2018-12-22T11:08:47.636Z,10.70
2018-12-22T11:11:16.792Z,10.60
2018-12-22T11:13:46.008Z,10.60
2018-12-22T11:16:15.346Z,10.60
2018-12-22T11:18:44.576Z,10.60
2018-12-22T11:21:13.908Z,10.60
2018-12-22T11:23:42.904Z,10.60
2018-12-22T11:26:12.187Z,10.60
2018-12-22T11:28:41.355Z,10.60
2018-12-22T11:31:10.320Z,10.60
2018-12-22T11:33:39.372Z,10.60
2018-12-22T11:36:08.392Z,10.60
2018-12-22T11:38:37.381Z,10.60
2018-12-22T11:41:06.395Z,10.70
2018-12-22T11:43:35.591Z,10.70
2018-12-22T11:46:04.930Z,10.50
2018-12-22T11:48:44.958Z,10.60
2018-12-22T11:51:14.484Z,10.60
2018-12-22T11:53:43.803Z,10.50
2018-12-22T11:56:12.916Z,10.50
2018-12-22T11:58:42.012Z,10.50
2018-12-22T12:01:11.005Z,10.50
2018-12-22T12:03:39.990Z,10.50
2018-12-22T12:06:09.286Z,10.50
2018-12-22T12:08:38.260Z,10.50
2018-12-22T12:11:07.544Z,10.50
2018-12-22T12:13:36.510Z,10.40
2018-12-22T12:16:27.439Z,10.50
2018-12-22T12:19:02.474Z,10.50
2018-12-22T12:21:31.500Z,10.40
2018-12-22T12:24:00.789Z,10.50
2018-12-22T12:26:29.762Z,10.40
2018-12-22T12:28:59.348Z,10.40
2018-12-22T12:31:28.327Z,10.40
2018-12-22T12:33:57.302Z,10.40
2018-12-22T12:36:26.287Z,10.50
2018-12-22T12:38:55.280Z,10.50
2018-12-22T12:41:24.710Z,10.40
2018-12-22T12:43:53.820Z,10.80
2018-12-22T12:46:25.391Z,10.40
2018-12-22T12:48:54.624Z,10.40
2018-12-22T12:51:23.599Z,10.30
2018-12-22T12:53:52.627Z,10.40
2018-12-22T12:56:21.682Z,10.40
2018-12-22T12:58:50.660Z,10.30
2018-12-22T13:01:19.644Z,10.40
2018-12-22T13:03:48.616Z,10.40
2018-12-22T13:06:17.627Z,10.30
2018-12-22T13:08:46.608Z,10.30
2018-12-22T13:11:15.713Z,10.30
2018-12-22T13:13:54.401Z,10.40
2018-12-22T13:16:23.635Z,10.40
2018-12-22T13:18:53.318Z,10.40
2018-12-22T13:21:22.288Z,10.40
2018-12-22T13:23:51.293Z,10.60
2018-12-22T13:26:20.617Z,10.70
2018-12-22T13:28:49.621Z,10.60
2018-12-22T13:31:21.121Z,10.60
2018-12-22T13:33:50.080Z,10.20
2018-12-22T13:36:20.811Z,10.50
2018-12-22T13:38:54.048Z,10.30
2018-12-22T13:41:23.100Z,10.50
2018-12-22T13:43:52.090Z,10.50
2018-12-22T13:46:21.383Z,10.50
2018-12-22T13:48:50.392Z,10.50
2018-12-22T13:51:19.432Z,10.50
2018-12-22T13:53:48.548Z,10.50
2018-12-22T13:56:17.560Z,10.50
2018-12-22T13:58:46.821Z,10.80
2018-12-22T14:01:19.088Z,11.00
2018-12-22T14:03:49.780Z,11.30
2018-12-22T14:06:22.320Z,11.10
2018-12-22T14:08:51.377Z,10.80
2018-12-22T14:11:20.368Z,10.70
2018-12-22T14:13:49.616Z,10.60
2018-12-22T14:16:25.189Z,10.60
2018-12-22T14:18:58.276Z,10.50
2018-12-22T14:21:28.197Z,10.50
2018-12-22T14:25:05.308Z,10.20
2018-12-22T14:27:34.325Z,10.50
2018-12-22T14:30:03.884Z,10.60
2018-12-22T14:32:32.912Z,10.40
2018-12-22T14:35:09.761Z,10.40
2018-12-22T14:37:38.772Z,10.40
2018-12-22T14:40:11.096Z,10.30
2018-12-22T14:42:40.264Z,10.40
2018-12-22T14:45:11.052Z,10.30
2018-12-22T14:52:38.349Z,9.00
2018-12-22T14:55:08.786Z,9.20
2018-12-22T14:57:51.259Z,9.20
2018-12-22T15:00:20.302Z,9.10
2018-12-22T15:05:17.884Z,9.00
2018-12-22T15:07:47.064Z,9.10
2018-12-22T15:10:16.159Z,8.90
2018-12-22T15:15:13.707Z,8.80
2018-12-22T15:17:42.848Z,8.80
2018-12-22T15:20:15.363Z,8.90
2018-12-22T15:22:44.737Z,8.80
2018-12-22T15:25:13.744Z,8.80
2018-12-22T15:27:42.722Z,8.50
2018-12-22T15:30:13.391Z,8.70
2018-12-22T15:32:46.261Z,9.00
2018-12-22T15:35:13.793Z,8.80
2018-12-22T15:37:42.771Z,8.90
2018-12-22T15:40:12.144Z,8.90
2018-12-22T15:50:10.771Z,9.00
2018-12-22T15:52:39.768Z,8.90
2018-12-22T15:55:09.297Z,9.40
2018-12-22T16:00:09.417Z,8.90
2018-12-22T16:02:38.389Z,8.90
2018-12-22T16:05:09.175Z,8.80
2018-12-22T16:10:10.168Z,8.50
2018-12-22T16:12:39.155Z,8.80
2018-12-22T16:20:09.162Z,8.60
2018-12-22T16:22:42.992Z,8.80
2018-12-22T16:27:41.875Z,8.80
2018-12-22T16:30:17.869Z,8.80
2018-12-22T16:32:46.977Z,8.80
2018-12-22T16:37:44.576Z,8.80
2018-12-22T16:42:42.336Z,8.60
2018-12-22T16:47:41.272Z,8.40
2018-12-22T16:50:12.954Z,8.30
2018-12-22T16:52:41.908Z,8.20
2018-12-22T17:00:16.272Z,8.10
2018-12-22T17:02:52.554Z,8.10
2018-12-22T17:05:21.997Z,8.10
2018-12-22T17:07:51.290Z,8.10
2018-12-22T17:10:20.317Z,8.10
2018-12-22T17:12:49.329Z,7.90
2018-12-22T17:17:49.043Z,7.80
2018-12-22T17:20:18.128Z,7.70
2018-12-22T17:23:37.701Z,5.40
2018-12-22T17:26:09.044Z,7.70
2018-12-22T17:28:38.075Z,7.70
2018-12-22T17:31:07.465Z,7.70
2018-12-22T17:33:36.483Z,7.80
2018-12-22T17:36:06.173Z,7.70
2018-12-22T17:38:35.139Z,7.80
2018-12-22T17:43:33.093Z,7.70
2018-12-22T17:46:02.164Z,7.80
2018-12-22T17:48:31.138Z,7.90
2018-12-22T17:53:28.753Z,7.10
2018-12-22T17:55:57.802Z,7.70
2018-12-22T17:58:27.085Z,7.80
2018-12-22T18:13:23.002Z,8.00
2018-12-22T18:18:22.552Z,7.90
2018-12-22T18:20:51.647Z,8.00
2018-12-22T18:23:20.649Z,7.80
2018-12-22T18:28:18.485Z,8.00
2018-12-22T18:35:44.756Z,7.90
2018-12-22T18:38:13.733Z,7.90
2018-12-22T18:45:39.917Z,7.60
2018-12-22T18:48:08.902Z,7.80
2018-12-22T18:50:37.996Z,7.70
2018-12-22T18:55:35.629Z,8.20
2018-12-22T18:58:06.243Z,7.70
2018-12-22T19:00:35.270Z,7.60
2018-12-22T19:03:04.350Z,7.70
2018-12-22T19:05:33.317Z,7.60
2018-12-22T19:08:07.736Z,7.70
2018-12-22T19:10:40.985Z,7.70
2018-12-22T19:15:38.612Z,7.70
2018-12-22T19:23:24.805Z,7.70
2018-12-22T19:25:53.988Z,7.90
2018-12-22T19:28:23.015Z,8.00
2018-12-22T19:30:52.001Z,8.00
2018-12-22T19:33:21.037Z,7.90
2018-12-22T19:35:50.020Z,8.00
2018-12-22T19:40:47.596Z,8.00
2018-12-22T19:43:16.825Z,8.10
2018-12-22T19:48:14.625Z,8.10
2018-12-22T19:50:43.913Z,8.10
2018-12-22T19:53:13.384Z,8.10
2018-12-22T19:55:42.363Z,8.30
2018-12-22T19:58:11.459Z,8.20
2018-12-22T20:05:37.597Z,8.40
2018-12-22T20:08:06.624Z,8.00
2018-12-22T20:10:35.601Z,8.60
2018-12-22T20:15:33.808Z,8.10
2018-12-22T20:18:02.815Z,8.10
2018-12-22T20:20:31.766Z,8.10
2018-12-22T20:25:29.476Z,8.20
2018-12-22T20:27:58.733Z,7.90
2018-12-22T20:30:27.705Z,8.20
2018-12-22T20:32:56.725Z,8.30
2018-12-22T20:35:25.732Z,8.10
2018-12-22T20:37:54.712Z,8.80
2018-12-22T20:40:23.944Z,8.10
2018-12-22T20:42:53.177Z,8.20
2018-12-22T20:45:22.136Z,8.10
2018-12-22T20:47:51.144Z,8.20
2018-12-22T20:50:20.488Z,8.20
2018-12-22T20:52:49.757Z,7.90
2018-12-22T20:55:18.725Z,8.10
2018-12-22T21:00:16.587Z,8.20
2018-12-22T21:02:45.576Z,8.20
2018-12-22T21:05:14.778Z,8.10
2018-12-22T21:07:43.762Z,8.10
2018-12-22T21:10:12.764Z,8.10
2018-12-22T21:15:10.572Z,8.20
2018-12-22T21:20:08.192Z,7.90
2018-12-22T21:22:37.199Z,8.10
2018-12-22T21:25:06.211Z,8.20
2018-12-22T21:30:04.056Z,7.80
2018-12-22T21:37:30.560Z,8.00
2018-12-22T21:42:28.988Z,7.90
2018-12-22T21:44:57.925Z,8.00
2018-12-22T21:54:53.070Z,7.90
2018-12-22T21:57:22.053Z,7.50
2018-12-22T22:02:19.592Z,8.00
2018-12-22T22:04:48.569Z,7.90
2018-12-22T22:09:46.560Z,7.90
2018-12-22T22:14:44.112Z,7.90
2018-12-22T22:17:13.068Z,7.70
2018-12-22T22:29:37.311Z,7.70
2018-12-22T22:32:06.819Z,8.00
2018-12-22T22:34:35.784Z,8.10
2018-12-22T22:37:04.802Z,8.00
2018-12-22T22:44:31.635Z,8.10
2018-12-22T22:54:27.018Z,8.10
2018-12-22T22:56:55.997Z,8.10
2018-12-22T22:59:24.995Z,8.20
2018-12-22T23:01:54.089Z,8.20
2018-12-22T23:04:23.384Z,8.40
2018-12-22T23:09:21.177Z,8.10
2018-12-22T23:11:50.148Z,8.30
2018-12-22T23:14:19.396Z,8.20
2018-12-22T23:24:14.933Z,8.10
2018-12-22T23:26:44.016Z,8.20
2018-12-22T23:29:13.014Z,8.20
2018-12-22T23:34:10.710Z,8.10
2018-12-22T23:36:39.989Z,8.20
2018-12-22T23:41:38.007Z,8.10
2018-12-22T23:44:07.004Z,8.10
2018-12-22T23:46:36.302Z,8.00
2018-12-22T23:51:33.905Z,8.20
2018-12-22T23:54:02.893Z,8.20
2018-12-22T23:56:32.531Z,8.10
